GLD1386 SBPJ-SBSN
Flight info
| Callsign | GLD1386 |
|---|---|
| Flight time | 1h 34m |
| Altitude | 32000 |
| Route | OPNUP DCT ITALA DCT RONUB DCT ANRUS DCT GELVU DCT ATIDO |
| Aircraft | B738/M-SDE2E3FGHIRWXY/LB1 |
Departure
| Time | 2026-04-19 18:02 |
|---|---|
| Airport | Brigadeiro Lysias Rodrigues Airport (SBPJ) |
Arrival
| Time | 2026-04-19 19:36 |
|---|---|
| Airport | Santarém - Maestro Wilson Fonseca International Airport (SBSN) |
| Time | Latitude | Longitude | Altitude | Speed | Heading |
|---|---|---|---|---|---|
| 2026-04-19 17:25 | -10.29463 | -48.35775 | 782 ft | 0 kts | 213° |
| 2026-04-19 17:50 | -10.29462 | -48.35774 | 782 ft | 1 kts | 213° |
| 2026-04-19 17:50 | -10.29454 | -48.35769 | 782 ft | 2 kts | 213° |
| 2026-04-19 17:50 | -10.29442 | -48.35761 | 782 ft | 2 kts | 207° |
| 2026-04-19 17:51 | -10.29428 | -48.35757 | 782 ft | 2 kts | 184° |
| 2026-04-19 17:51 | -10.29413 | -48.35757 | 782 ft | 2 kts | 167° |
| 2026-04-19 17:51 | -10.29404 | -48.35760 | 782 ft | 2 kts | 154° |
| 2026-04-19 17:51 | -10.29389 | -48.35772 | 782 ft | 2 kts | 130° |
| 2026-04-19 17:52 | -10.29385 | -48.35777 | 782 ft | 1 kts | 120° |
| 2026-04-19 17:52 | -10.29383 | -48.35781 | 782 ft | 0 kts | 123° |
| 2026-04-19 17:55 | -10.29385 | -48.35777 | 782 ft | 1 kts | 123° |
| 2026-04-19 17:55 | -10.29391 | -48.35768 | 782 ft | 2 kts | 124° |
| 2026-04-19 17:55 | -10.29406 | -48.35746 | 782 ft | 4 kts | 124° |
| 2026-04-19 17:55 | -10.29432 | -48.35708 | 782 ft | 5 kts | 124° |
| 2026-04-19 17:56 | -10.29455 | -48.35673 | 782 ft | 6 kts | 123° |
| 2026-04-19 17:56 | -10.29465 | -48.35646 | 782 ft | 6 kts | 93° |
| 2026-04-19 17:56 | -10.29442 | -48.35613 | 782 ft | 6 kts | 33° |
| 2026-04-19 17:56 | -10.29403 | -48.35588 | 782 ft | 6 kts | 32° |
| 2026-04-19 17:57 | -10.29378 | -48.35571 | 782 ft | 0 kts | 33° |
| 2026-04-19 17:57 | -10.29377 | -48.35571 | 782 ft | 1 kts | 33° |
| 2026-04-19 17:57 | -10.29362 | -48.35560 | 782 ft | 3 kts | 33° |
| 2026-04-19 17:57 | -10.29334 | -48.35541 | 782 ft | 5 kts | 33° |
| 2026-04-19 17:58 | -10.29305 | -48.35509 | 782 ft | 6 kts | 65° |
| 2026-04-19 17:58 | -10.29302 | -48.35478 | 782 ft | 7 kts | 101° |
| 2026-04-19 17:58 | -10.29330 | -48.35434 | 782 ft | 8 kts | 127° |
| 2026-04-19 17:58 | -10.29376 | -48.35366 | 782 ft | 9 kts | 124° |
| 2026-04-19 17:59 | -10.29413 | -48.35311 | 782 ft | 9 kts | 124° |
| 2026-04-19 17:59 | -10.29453 | -48.35250 | 782 ft | 10 kts | 123° |
| 2026-04-19 17:59 | -10.29480 | -48.35207 | 782 ft | 11 kts | 123° |
| 2026-04-19 17:59 | -10.29524 | -48.35138 | 782 ft | 13 kts | 123° |
| 2026-04-19 18:00 | -10.29584 | -48.35045 | 782 ft | 18 kts | 123° |
| 2026-04-19 18:00 | -10.29682 | -48.34896 | 782 ft | 17 kts | 121° |
| 2026-04-19 18:00 | -10.29717 | -48.34832 | 782 ft | 14 kts | 109° |
| 2026-04-19 18:00 | -10.29763 | -48.34761 | 782 ft | 9 kts | 229° |
| 2026-04-19 18:01 | -10.29750 | -48.34805 | 782 ft | 12 kts | 310° |
| 2026-04-19 18:01 | -10.29499 | -48.35178 | 782 ft | 90 kts | 304° |
| 2026-04-19 18:01 | -10.29216 | -48.35609 | 782 ft | 129 kts | 303° |
| 2026-04-19 18:01 | -10.28402 | -48.36870 | 927 ft | 181 kts | 301° |
| 2026-04-19 18:02 | -10.27943 | -48.37597 | 1314 ft | 184 kts | 302° |
| 2026-04-19 18:02 | -10.27046 | -48.38947 | 2433 ft | 173 kts | 304° |
| 2026-04-19 18:02 | -10.26315 | -48.40020 | 2615 ft | 196 kts | 307° |
| 2026-04-19 18:02 | -10.25268 | -48.41023 | 2730 ft | 225 kts | 331° |
| 2026-04-19 18:03 | -10.24302 | -48.41494 | 2942 ft | 238 kts | 335° |
| 2026-04-19 18:03 | -10.22701 | -48.42194 | 3309 ft | 258 kts | 336° |
| 2026-04-19 18:03 | -10.21069 | -48.42890 | 3908 ft | 266 kts | 337° |
| 2026-04-19 18:03 | -10.18789 | -48.43859 | 4893 ft | 270 kts | 337° |
| 2026-04-19 18:04 | -10.17069 | -48.44591 | 5630 ft | 273 kts | 337° |
| 2026-04-19 18:04 | -10.15326 | -48.45335 | 6357 ft | 276 kts | 338° |
| 2026-04-19 18:04 | -10.14140 | -48.45842 | 6837 ft | 278 kts | 338° |
| 2026-04-19 18:04 | -10.12374 | -48.46596 | 7548 ft | 281 kts | 338° |
| 2026-04-19 18:05 | -10.09962 | -48.47626 | 8486 ft | 286 kts | 338° |
| 2026-04-19 18:05 | -10.08131 | -48.48408 | 9183 ft | 290 kts | 338° |
| 2026-04-19 18:05 | -10.06259 | -48.49207 | 9886 ft | 294 kts | 338° |
| 2026-04-19 18:05 | -10.05017 | -48.49737 | 10257 ft | 300 kts | 338° |
| 2026-04-19 18:06 | -10.03000 | -48.50597 | 10358 ft | 327 kts | 338° |
| 2026-04-19 18:06 | -10.00862 | -48.51509 | 10685 ft | 343 kts | 338° |
| 2026-04-19 18:06 | -9.98640 | -48.52458 | 11323 ft | 350 kts | 338° |
| 2026-04-19 18:06 | -9.95664 | -48.53728 | 12257 ft | 356 kts | 338° |
| 2026-04-19 18:07 | -9.92149 | -48.55229 | 13373 ft | 362 kts | 338° |
| 2026-04-19 18:07 | -9.89808 | -48.56227 | 14096 ft | 366 kts | 338° |
| 2026-04-19 18:07 | -9.87471 | -48.57224 | 14811 ft | 370 kts | 338° |
| 2026-04-19 18:08 | -9.85074 | -48.58246 | 15528 ft | 375 kts | 339° |
| 2026-04-19 18:08 | -9.81877 | -48.59610 | 16443 ft | 380 kts | 339° |
| 2026-04-19 18:08 | -9.79418 | -48.60657 | 17121 ft | 384 kts | 339° |
| 2026-04-19 18:08 | -9.77776 | -48.61357 | 17561 ft | 387 kts | 339° |
| 2026-04-19 18:09 | -9.74470 | -48.62767 | 18412 ft | 393 kts | 339° |
| 2026-04-19 18:09 | -9.71967 | -48.63907 | 19040 ft | 398 kts | 334° |
| 2026-04-19 18:09 | -9.70362 | -48.64818 | 19444 ft | 401 kts | 329° |
| 2026-04-19 18:09 | -9.67423 | -48.67135 | 20232 ft | 409 kts | 315° |
| 2026-04-19 18:10 | -9.66139 | -48.68568 | 20645 ft | 412 kts | 311° |
| 2026-04-19 18:10 | -9.63713 | -48.71590 | 21419 ft | 418 kts | 309° |
| 2026-04-19 18:10 | -9.62518 | -48.73121 | 21789 ft | 420 kts | 309° |
| 2026-04-19 18:10 | -9.60691 | -48.75471 | 22346 ft | 424 kts | 309° |
| 2026-04-19 18:11 | -9.58872 | -48.77815 | 22884 ft | 428 kts | 309° |
| 2026-04-19 18:11 | -9.57006 | -48.80220 | 23428 ft | 432 kts | 309° |
| 2026-04-19 18:11 | -9.55143 | -48.82621 | 23945 ft | 436 kts | 309° |
| 2026-04-19 18:11 | -9.53278 | -48.85026 | 24463 ft | 439 kts | 308° |
| 2026-04-19 18:12 | -9.51388 | -48.87464 | 24969 ft | 443 kts | 308° |
| 2026-04-19 18:12 | -9.49468 | -48.89939 | 25476 ft | 446 kts | 308° |
| 2026-04-19 18:12 | -9.47565 | -48.92395 | 25957 ft | 450 kts | 308° |
| 2026-04-19 18:12 | -9.44986 | -48.95719 | 26586 ft | 454 kts | 308° |
| 2026-04-19 18:13 | -9.43667 | -48.97420 | 26889 ft | 457 kts | 308° |
| 2026-04-19 18:13 | -9.41715 | -48.99936 | 27358 ft | 459 kts | 308° |
| 2026-04-19 18:13 | -9.39074 | -49.03338 | 27965 ft | 462 kts | 308° |
| 2026-04-19 18:13 | -9.37077 | -49.05911 | 28420 ft | 465 kts | 308° |
| 2026-04-19 18:14 | -9.35088 | -49.08473 | 28855 ft | 467 kts | 308° |
| 2026-04-19 18:14 | -9.33097 | -49.11038 | 29285 ft | 469 kts | 308° |
| 2026-04-19 18:14 | -9.31758 | -49.12762 | 29566 ft | 470 kts | 308° |
| 2026-04-19 18:14 | -9.29738 | -49.15363 | 29976 ft | 472 kts | 308° |
| 2026-04-19 18:15 | -9.27705 | -49.17981 | 30413 ft | 472 kts | 308° |
| 2026-04-19 18:15 | -9.25687 | -49.20578 | 30931 ft | 471 kts | 308° |
| 2026-04-19 18:15 | -9.23667 | -49.23177 | 31414 ft | 470 kts | 308° |
| 2026-04-19 18:15 | -9.20976 | -49.26638 | 31884 ft | 470 kts | 308° |
| 2026-04-19 18:16 | -9.19631 | -49.28368 | 31885 ft | 472 kts | 308° |
| 2026-04-19 18:16 | -9.14938 | -49.34401 | 31887 ft | 466 kts | 308° |
| 2026-04-19 18:17 | -9.11599 | -49.38692 | 31885 ft | 467 kts | 308° |
| 2026-04-19 18:17 | -9.07621 | -49.43802 | 31885 ft | 467 kts | 307° |
| 2026-04-19 18:18 | -9.02938 | -49.49796 | 31885 ft | 467 kts | 308° |
| 2026-04-19 18:18 | -8.98867 | -49.54868 | 31885 ft | 466 kts | 308° |
| 2026-04-19 18:19 | -8.95417 | -49.59078 | 31885 ft | 465 kts | 308° |
| 2026-04-19 18:19 | -8.90619 | -49.64913 | 31885 ft | 465 kts | 308° |
| 2026-04-19 18:20 | -8.86513 | -49.69977 | 31885 ft | 465 kts | 307° |
| 2026-04-19 18:20 | -8.82478 | -49.75079 | 31885 ft | 465 kts | 307° |
| 2026-04-19 18:21 | -8.79180 | -49.79350 | 31885 ft | 465 kts | 306° |
| 2026-04-19 18:21 | -8.75260 | -49.84530 | 31885 ft | 465 kts | 306° |
| 2026-04-19 18:22 | -8.71367 | -49.89752 | 31885 ft | 464 kts | 305° |
| 2026-04-19 18:22 | -8.67517 | -49.94929 | 31885 ft | 465 kts | 306° |
| 2026-04-19 18:23 | -8.63607 | -50.00123 | 31885 ft | 465 kts | 306° |
| 2026-04-19 18:23 | -8.59676 | -50.05236 | 31907 ft | 465 kts | 307° |
| 2026-04-19 18:24 | -8.55673 | -50.10354 | 31934 ft | 465 kts | 307° |
| 2026-04-19 18:24 | -8.51692 | -50.15439 | 31961 ft | 465 kts | 307° |
| 2026-04-19 18:25 | -8.47659 | -50.20589 | 31989 ft | 465 kts | 307° |
| 2026-04-19 18:25 | -8.43659 | -50.25695 | 31993 ft | 465 kts | 307° |
| 2026-04-19 18:26 | -8.39663 | -50.30794 | 31993 ft | 465 kts | 307° |
| 2026-04-19 18:26 | -8.35667 | -50.35891 | 31993 ft | 465 kts | 307° |
| 2026-04-19 18:27 | -8.30984 | -50.41861 | 31993 ft | 465 kts | 307° |
| 2026-04-19 18:27 | -8.27658 | -50.46101 | 31993 ft | 465 kts | 307° |
| 2026-04-19 18:28 | -8.22986 | -50.52055 | 31993 ft | 465 kts | 307° |
| 2026-04-19 18:28 | -8.19634 | -50.56324 | 31993 ft | 465 kts | 307° |
| 2026-04-19 18:29 | -8.15626 | -50.61427 | 31993 ft | 465 kts | 307° |
| 2026-04-19 18:29 | -8.11609 | -50.66540 | 31993 ft | 465 kts | 307° |
| 2026-04-19 18:30 | -8.07608 | -50.71632 | 31993 ft | 465 kts | 307° |
| 2026-04-19 18:30 | -8.03612 | -50.76715 | 31993 ft | 465 kts | 307° |
| 2026-04-19 18:31 | -7.98933 | -50.82663 | 31993 ft | 465 kts | 307° |
| 2026-04-19 18:31 | -7.95590 | -50.86912 | 31993 ft | 465 kts | 307° |
| 2026-04-19 18:32 | -7.91562 | -50.92031 | 31993 ft | 465 kts | 307° |
| 2026-04-19 18:32 | -7.87550 | -50.97126 | 31993 ft | 466 kts | 307° |
| 2026-04-19 18:33 | -7.83500 | -51.02269 | 31993 ft | 466 kts | 307° |
| 2026-04-19 18:33 | -7.79513 | -51.07352 | 31993 ft | 466 kts | 307° |
| 2026-04-19 18:34 | -7.75518 | -51.12520 | 31993 ft | 466 kts | 307° |
| 2026-04-19 18:34 | -7.71539 | -51.17658 | 31993 ft | 466 kts | 308° |
| 2026-04-19 18:35 | -7.66847 | -51.23614 | 31993 ft | 466 kts | 308° |
| 2026-04-19 18:35 | -7.62790 | -51.28659 | 31993 ft | 466 kts | 309° |
| 2026-04-19 18:36 | -7.59146 | -51.32705 | 31994 ft | 466 kts | 313° |
| 2026-04-19 18:36 | -7.54659 | -51.37369 | 31993 ft | 466 kts | 314° |
| 2026-04-19 18:37 | -7.49417 | -51.42836 | 31993 ft | 466 kts | 313° |
| 2026-04-19 18:37 | -7.45689 | -51.46779 | 31993 ft | 466 kts | 313° |
| 2026-04-19 18:38 | -7.41260 | -51.51553 | 31993 ft | 466 kts | 312° |
| 2026-04-19 18:38 | -7.36890 | -51.56362 | 31993 ft | 466 kts | 311° |
| 2026-04-19 18:39 | -7.31833 | -51.62025 | 31993 ft | 466 kts | 311° |
| 2026-04-19 18:39 | -7.28226 | -51.66051 | 31993 ft | 466 kts | 311° |
| 2026-04-19 18:40 | -7.23866 | -51.70863 | 31993 ft | 466 kts | 312° |
| 2026-04-19 18:40 | -7.19482 | -51.75666 | 31993 ft | 466 kts | 312° |
| 2026-04-19 18:41 | -7.15085 | -51.80463 | 31993 ft | 466 kts | 312° |
| 2026-04-19 18:41 | -7.10715 | -51.85221 | 31993 ft | 466 kts | 312° |
| 2026-04-19 18:42 | -7.05569 | -51.90815 | 31993 ft | 466 kts | 312° |
| 2026-04-19 18:42 | -7.01892 | -51.94807 | 31993 ft | 466 kts | 312° |
| 2026-04-19 18:43 | -6.96969 | -52.00149 | 31993 ft | 466 kts | 313° |
| 2026-04-19 18:43 | -6.93201 | -52.04237 | 31993 ft | 466 kts | 313° |
| 2026-04-19 18:44 | -6.88249 | -52.09605 | 31993 ft | 466 kts | 313° |
| 2026-04-19 18:44 | -6.84010 | -52.14200 | 31993 ft | 466 kts | 313° |
| 2026-04-19 18:45 | -6.79549 | -52.19034 | 31993 ft | 466 kts | 313° |
| 2026-04-19 18:45 | -6.75138 | -52.23813 | 31993 ft | 466 kts | 313° |
| 2026-04-19 18:46 | -6.70728 | -52.28587 | 31993 ft | 466 kts | 313° |
| 2026-04-19 18:46 | -6.66300 | -52.33381 | 31993 ft | 466 kts | 313° |
| 2026-04-19 18:47 | -6.61971 | -52.38066 | 31993 ft | 466 kts | 313° |
| 2026-04-19 18:47 | -6.57548 | -52.42851 | 31993 ft | 466 kts | 313° |
| 2026-04-19 18:48 | -6.53128 | -52.47631 | 31993 ft | 466 kts | 313° |
| 2026-04-19 18:48 | -6.48738 | -52.52378 | 31993 ft | 466 kts | 313° |
| 2026-04-19 18:49 | -6.44298 | -52.57178 | 31993 ft | 466 kts | 313° |
| 2026-04-19 18:49 | -6.39885 | -52.61947 | 31993 ft | 466 kts | 313° |
| 2026-04-19 18:50 | -6.35466 | -52.66721 | 31993 ft | 466 kts | 313° |
| 2026-04-19 18:50 | -6.31022 | -52.71401 | 31993 ft | 466 kts | 315° |
| 2026-04-19 18:51 | -6.26440 | -52.76029 | 31993 ft | 466 kts | 315° |
| 2026-04-19 18:51 | -6.21879 | -52.80637 | 31993 ft | 466 kts | 315° |
| 2026-04-19 18:52 | -6.15029 | -52.87566 | 31979 ft | 464 kts | 314° |
| 2026-04-19 18:52 | -6.10509 | -52.92140 | 31955 ft | 462 kts | 314° |
| 2026-04-19 18:53 | -6.05944 | -52.96715 | 31921 ft | 461 kts | 315° |
| 2026-04-19 18:53 | -6.01430 | -53.01184 | 31897 ft | 459 kts | 315° |
| 2026-04-19 18:54 | -5.96903 | -53.05668 | 31885 ft | 458 kts | 315° |
| 2026-04-19 18:54 | -5.92405 | -53.10149 | 31885 ft | 458 kts | 314° |
| 2026-04-19 18:55 | -5.87871 | -53.14703 | 31885 ft | 458 kts | 314° |
| 2026-04-19 18:55 | -5.83426 | -53.19210 | 31885 ft | 458 kts | 314° |
| 2026-04-19 18:56 | -5.78965 | -53.23771 | 31885 ft | 458 kts | 314° |
| 2026-04-19 18:56 | -5.74529 | -53.28332 | 31885 ft | 458 kts | 314° |
| 2026-04-19 18:57 | -5.70074 | -53.32917 | 31885 ft | 458 kts | 314° |
| 2026-04-19 18:57 | -5.65633 | -53.37472 | 31885 ft | 458 kts | 314° |
| 2026-04-19 18:58 | -5.61189 | -53.41997 | 31885 ft | 458 kts | 314° |
| 2026-04-19 18:58 | -5.56702 | -53.46538 | 31885 ft | 458 kts | 314° |
| 2026-04-19 18:59 | -5.52207 | -53.51081 | 31885 ft | 458 kts | 314° |
| 2026-04-19 18:59 | -5.47735 | -53.55597 | 31882 ft | 458 kts | 314° |
| 2026-04-19 19:00 | -5.43250 | -53.60125 | 31877 ft | 458 kts | 314° |
| 2026-04-19 19:00 | -5.38762 | -53.64654 | 31872 ft | 458 kts | 314° |
| 2026-04-19 19:01 | -5.34274 | -53.69181 | 31867 ft | 458 kts | 314° |
| 2026-04-19 19:01 | -5.29775 | -53.73719 | 31862 ft | 458 kts | 314° |
| 2026-04-19 19:02 | -5.25307 | -53.78224 | 31860 ft | 458 kts | 314° |
| 2026-04-19 19:02 | -5.20813 | -53.82754 | 31865 ft | 458 kts | 314° |
| 2026-04-19 19:03 | -5.16331 | -53.87271 | 31868 ft | 458 kts | 314° |
| 2026-04-19 19:03 | -5.11845 | -53.91791 | 31868 ft | 458 kts | 314° |
| 2026-04-19 19:04 | -5.07390 | -53.96279 | 31863 ft | 459 kts | 314° |
| 2026-04-19 19:04 | -5.02884 | -54.00818 | 31858 ft | 459 kts | 314° |
| 2026-04-19 19:05 | -4.98363 | -54.05310 | 31857 ft | 459 kts | 317° |
| 2026-04-19 19:05 | -4.93346 | -54.09263 | 31856 ft | 460 kts | 328° |
| 2026-04-19 19:06 | -4.87790 | -54.12415 | 31858 ft | 460 kts | 331° |
| 2026-04-19 19:06 | -4.82126 | -54.15471 | 31857 ft | 460 kts | 331° |
| 2026-04-19 19:07 | -4.76485 | -54.18492 | 31858 ft | 460 kts | 332° |
| 2026-04-19 19:07 | -4.70867 | -54.21491 | 31858 ft | 460 kts | 332° |
| 2026-04-19 19:08 | -4.65222 | -54.24498 | 31858 ft | 460 kts | 332° |
| 2026-04-19 19:08 | -4.59566 | -54.27507 | 31858 ft | 460 kts | 332° |
| 2026-04-19 19:09 | -4.53945 | -54.30495 | 31858 ft | 460 kts | 332° |
| 2026-04-19 19:09 | -4.48263 | -54.33515 | 31858 ft | 460 kts | 332° |
| 2026-04-19 19:10 | -4.42619 | -54.36513 | 31858 ft | 460 kts | 332° |
| 2026-04-19 19:10 | -4.36998 | -54.39497 | 31858 ft | 460 kts | 332° |
| 2026-04-19 19:11 | -4.31326 | -54.42509 | 31858 ft | 460 kts | 332° |
| 2026-04-19 19:11 | -4.25700 | -54.45495 | 31858 ft | 460 kts | 332° |
| 2026-04-19 19:12 | -4.20050 | -54.48494 | 31858 ft | 460 kts | 332° |
| 2026-04-19 19:12 | -4.14400 | -54.51492 | 31858 ft | 460 kts | 332° |
| 2026-04-19 19:13 | -4.08786 | -54.54470 | 31858 ft | 460 kts | 332° |
| 2026-04-19 19:13 | -4.03135 | -54.57468 | 31858 ft | 460 kts | 332° |
| 2026-04-19 19:14 | -3.97505 | -54.60453 | 31858 ft | 460 kts | 332° |
| 2026-04-19 19:14 | -3.91894 | -54.63428 | 31167 ft | 448 kts | 332° |
| 2026-04-19 19:15 | -3.89179 | -54.64868 | 30253 ft | 446 kts | 332° |
| 2026-04-19 19:15 | -3.86467 | -54.66305 | 29620 ft | 437 kts | 332° |
| 2026-04-19 19:15 | -3.83797 | -54.67721 | 29144 ft | 431 kts | 332° |
| 2026-04-19 19:15 | -3.81156 | -54.69121 | 28556 ft | 438 kts | 332° |
| 2026-04-19 19:16 | -3.78475 | -54.70542 | 27945 ft | 431 kts | 332° |
| 2026-04-19 19:16 | -3.75854 | -54.71932 | 27366 ft | 422 kts | 332° |
| 2026-04-19 19:16 | -3.73274 | -54.73299 | 26801 ft | 423 kts | 332° |
| 2026-04-19 19:16 | -3.70673 | -54.74690 | 26211 ft | 424 kts | 332° |
| 2026-04-19 19:17 | -3.68119 | -54.76071 | 25622 ft | 416 kts | 331° |
| 2026-04-19 19:17 | -3.65628 | -54.77429 | 25056 ft | 408 kts | 331° |
| 2026-04-19 19:17 | -3.63098 | -54.78814 | 24490 ft | 414 kts | 331° |
| 2026-04-19 19:17 | -3.60600 | -54.80181 | 23903 ft | 408 kts | 332° |
| 2026-04-19 19:18 | -3.58139 | -54.81524 | 23337 ft | 400 kts | 332° |
| 2026-04-19 19:18 | -3.55673 | -54.82860 | 22782 ft | 402 kts | 332° |
| 2026-04-19 19:18 | -3.53224 | -54.84175 | 22210 ft | 401 kts | 332° |
| 2026-04-19 19:18 | -3.50790 | -54.85471 | 21640 ft | 392 kts | 333° |
| 2026-04-19 19:19 | -3.48397 | -54.86729 | 21093 ft | 388 kts | 333° |
| 2026-04-19 19:19 | -3.45950 | -54.88003 | 20539 ft | 392 kts | 333° |
| 2026-04-19 19:19 | -3.43567 | -54.89233 | 19976 ft | 384 kts | 334° |
| 2026-04-19 19:20 | -3.38845 | -54.91646 | 18890 ft | 383 kts | 334° |
| 2026-04-19 19:20 | -3.36490 | -54.92843 | 18325 ft | 376 kts | 334° |
| 2026-04-19 19:20 | -3.34201 | -54.94009 | 17790 ft | 368 kts | 334° |
| 2026-04-19 19:20 | -3.31900 | -54.95192 | 17261 ft | 372 kts | 334° |
| 2026-04-19 19:21 | -3.29614 | -54.96381 | 16711 ft | 367 kts | 334° |
| 2026-04-19 19:21 | -3.27397 | -54.97546 | 16177 ft | 360 kts | 335° |
| 2026-04-19 19:21 | -3.25110 | -54.98545 | 15663 ft | 361 kts | 342° |
| 2026-04-19 19:21 | -3.22702 | -54.99153 | 15100 ft | 355 kts | 354° |
| 2026-04-19 19:22 | -3.20255 | -54.99311 | 14525 ft | 347 kts | 1° |
| 2026-04-19 19:22 | -3.17909 | -54.99300 | 14026 ft | 340 kts | 3° |
| 2026-04-19 19:22 | -3.15534 | -54.99259 | 13545 ft | 345 kts | 3° |
| 2026-04-19 19:22 | -3.13162 | -54.99223 | 13023 ft | 337 kts | 3° |
| 2026-04-19 19:23 | -3.10857 | -54.99193 | 12534 ft | 331 kts | 3° |
| 2026-04-19 19:23 | -3.08517 | -54.99165 | 12056 ft | 335 kts | 3° |
| 2026-04-19 19:23 | -3.06233 | -54.99141 | 11548 ft | 327 kts | 3° |
| 2026-04-19 19:23 | -3.03963 | -54.99118 | 11075 ft | 326 kts | 3° |
| 2026-04-19 19:24 | -3.01688 | -54.99095 | 10592 ft | 326 kts | 3° |
| 2026-04-19 19:24 | -2.99478 | -54.99075 | 10163 ft | 316 kts | 3° |
| 2026-04-19 19:24 | -2.97333 | -54.99056 | 10026 ft | 296 kts | 3° |
| 2026-04-19 19:24 | -2.95311 | -54.99038 | 9977 ft | 293 kts | 3° |
| 2026-04-19 19:25 | -2.93307 | -54.99017 | 9871 ft | 285 kts | 4° |
| 2026-04-19 19:25 | -2.91380 | -54.99000 | 9689 ft | 272 kts | 4° |
| 2026-04-19 19:25 | -2.89464 | -54.98980 | 9284 ft | 279 kts | 4° |
| 2026-04-19 19:25 | -2.87539 | -54.98961 | 8910 ft | 272 kts | 4° |
| 2026-04-19 19:26 | -2.85661 | -54.98943 | 8588 ft | 273 kts | 4° |
| 2026-04-19 19:26 | -2.83777 | -54.98924 | 8260 ft | 272 kts | 4° |
| 2026-04-19 19:26 | -2.81893 | -54.98907 | 7915 ft | 265 kts | 4° |
| 2026-04-19 19:26 | -2.80039 | -54.98889 | 7606 ft | 272 kts | 4° |
| 2026-04-19 19:27 | -2.78181 | -54.98871 | 7250 ft | 265 kts | 3° |
| 2026-04-19 19:27 | -2.76347 | -54.98854 | 6928 ft | 265 kts | 3° |
| 2026-04-19 19:27 | -2.74489 | -54.98836 | 6593 ft | 266 kts | 3° |
| 2026-04-19 19:27 | -2.72677 | -54.98819 | 6252 ft | 258 kts | 3° |
| 2026-04-19 19:28 | -2.70868 | -54.98802 | 5949 ft | 264 kts | 3° |
| 2026-04-19 19:28 | -2.69052 | -54.98785 | 5603 ft | 258 kts | 3° |
| 2026-04-19 19:28 | -2.67273 | -54.98768 | 5288 ft | 259 kts | 3° |
| 2026-04-19 19:28 | -2.65471 | -54.98750 | 4955 ft | 258 kts | 3° |
| 2026-04-19 19:29 | -2.63716 | -54.98734 | 4623 ft | 251 kts | 3° |
| 2026-04-19 19:29 | -2.61928 | -54.98717 | 4319 ft | 258 kts | 3° |
| 2026-04-19 19:29 | -2.60188 | -54.98701 | 4103 ft | 245 kts | 3° |
| 2026-04-19 19:29 | -2.58490 | -54.98685 | 3870 ft | 246 kts | 3° |
| 2026-04-19 19:30 | -2.56827 | -54.98669 | 3621 ft | 237 kts | 3° |
| 2026-04-19 19:30 | -2.55936 | -54.98661 | 3536 ft | 229 kts | 4° |
| 2026-04-19 19:30 | -2.54410 | -54.98495 | 3421 ft | 211 kts | 12° |
| 2026-04-19 19:30 | -2.53012 | -54.98258 | 3194 ft | 201 kts | 12° |
| 2026-04-19 19:31 | -2.51666 | -54.98020 | 2936 ft | 190 kts | 13° |
| 2026-04-19 19:31 | -2.50421 | -54.97791 | 2744 ft | 180 kts | 13° |
| 2026-04-19 19:31 | -2.49208 | -54.97562 | 2548 ft | 176 kts | 13° |
| 2026-04-19 19:31 | -2.48006 | -54.97334 | 2362 ft | 177 kts | 13° |
| 2026-04-19 19:32 | -2.46786 | -54.97102 | 2162 ft | 177 kts | 14° |
| 2026-04-19 19:32 | -2.45675 | -54.96674 | 1995 ft | 172 kts | 38° |
| 2026-04-19 19:32 | -2.44981 | -54.95721 | 2022 ft | 172 kts | 71° |
| 2026-04-19 19:32 | -2.44706 | -54.94586 | 1998 ft | 164 kts | 79° |
| 2026-04-19 19:33 | -2.44536 | -54.93474 | 1979 ft | 159 kts | 81° |
| 2026-04-19 19:33 | -2.44367 | -54.92362 | 2012 ft | 160 kts | 80° |
| 2026-04-19 19:33 | -2.44204 | -54.91330 | 2010 ft | 145 kts | 80° |
| 2026-04-19 19:33 | -2.44042 | -54.90328 | 1984 ft | 146 kts | 80° |
| 2026-04-19 19:34 | -2.43877 | -54.89320 | 1987 ft | 145 kts | 80° |
| 2026-04-19 19:34 | -2.43713 | -54.88315 | 1851 ft | 149 kts | 80° |
| 2026-04-19 19:34 | -2.43551 | -54.87324 | 1654 ft | 143 kts | 80° |
| 2026-04-19 19:34 | -2.43389 | -54.86326 | 1460 ft | 145 kts | 80° |
| 2026-04-19 19:35 | -2.43226 | -54.85329 | 1256 ft | 145 kts | 80° |
| 2026-04-19 19:35 | -2.43065 | -54.84341 | 1057 ft | 145 kts | 80° |
| 2026-04-19 19:35 | -2.42910 | -54.83349 | 835 ft | 146 kts | 80° |
| 2026-04-19 19:35 | -2.42750 | -54.82348 | 662 ft | 144 kts | 79° |
| 2026-04-19 19:36 | -2.42577 | -54.81350 | 431 ft | 145 kts | 80° |
| 2026-04-19 19:36 | -2.42420 | -54.80380 | 235 ft | 138 kts | 80° |
| 2026-04-19 19:36 | -2.42285 | -54.79547 | 207 ft | 95 kts | 81° |
| 2026-04-19 19:36 | -2.42214 | -54.79122 | 207 ft | 36 kts | 82° |
| 2026-04-19 19:37 | -2.42179 | -54.78903 | 207 ft | 28 kts | 82° |
| 2026-04-19 19:37 | -2.42179 | -54.78764 | 207 ft | 15 kts | 120° |
| 2026-04-19 19:37 | -2.42242 | -54.78698 | 207 ft | 2 kts | 136° |
| 2026-04-19 19:37 | -2.42243 | -54.78697 | 207 ft | 0 kts | 136° |
| 2026-04-19 19:39 | -2.42251 | -54.78689 | 207 ft | 3 kts | 136° |
| 2026-04-19 19:39 | -2.42277 | -54.78664 | 207 ft | 6 kts | 135° |
| 2026-04-19 19:39 | -2.42312 | -54.78629 | 207 ft | 7 kts | 135° |
| 2026-04-19 19:40 | -2.42359 | -54.78595 | 207 ft | 8 kts | 166° |
| 2026-04-19 19:40 | -2.42381 | -54.78616 | 207 ft | 5 kts | 312° |
| 2026-04-19 19:40 | -2.42350 | -54.78603 | 207 ft | 6 kts | 84° |
| 2026-04-19 19:40 | -2.42387 | -54.78585 | 207 ft | 7 kts | 205° |
| 2026-04-19 19:41 | -2.42382 | -54.78626 | 207 ft | 7 kts | 342° |
| 2026-04-19 19:41 | -2.42348 | -54.78590 | 207 ft | 8 kts | 84° |
| 2026-04-19 19:41 | -2.42379 | -54.78541 | 207 ft | 7 kts | 139° |
| 2026-04-19 19:41 | -2.42389 | -54.78532 | 207 ft | 0 kts | 139° |